Time;durP1;ratioP1;P1;durP2;ratioP2;P2;SDS_P1;SDS_P2;PMS_P1;PMS_P2;Temp;Humidity;BMP_temperature;BMP_pressure;BME280_temperature;BME280_humidity;BME280_pressure;Samples;Min_cycle;Max_cycle;Signal;HPM_P1;HPM_P2
2023/08/05 00:00:44;;;;;;;;;;;;;;;19.50;61.59;101530.34;4148429;28;19932;-55
2023/08/05 00:02:45;;;;;;;;;;;;;;;19.50;61.46;101546.38;4148119;28;19929;-56
2023/08/05 00:04:47;;;;;;;;;;;;;;;19.49;61.49;101544.69;4148499;28;19925;-55
2023/08/05 00:06:48;;;;;;;;;;;;;;;19.49;61.58;101542.00;4147897;28;20025;-56
2023/08/05 00:08:51;;;;;;;;;;;;;;;19.48;61.57;101534.94;4148391;28;19925;-57
2023/08/05 00:10:55;;;;;;;;;;;;;;;19.48;61.54;101542.97;4147145;28;19948;-56
2023/08/05 00:12:57;;;;;;;;;;;;;;;19.48;61.60;101545.63;4148481;28;19964;-56
2023/08/05 00:14:58;;;;;;;;;;;;;;;19.47;61.45;101547.41;4148133;28;19931;-57
2023/08/05 00:17:00;;;;;;;;;;;;;;;19.47;61.40;101541.22;4147773;28;19925;-56
2023/08/05 00:19:01;;;;;;;;;;;;;;;19.46;61.42;101537.69;4148405;28;20034;-58
2023/08/05 00:21:03;;;;;;;;;;;;;;;19.45;61.60;101532.47;4146850;28;19932;-56
2023/08/05 00:23:04;;;;;;;;;;;;;;;19.44;61.66;101531.59;4148293;28;20011;-56
2023/08/05 00:25:06;;;;;;;;;;;;;;;19.44;61.67;101533.41;4147741;28;19936;-56
2023/08/05 00:27:07;;;;;;;;;;;;;;;19.43;61.77;101534.34;4148102;28;20406;-56
2023/08/05 00:29:09;;;;;;;;;;;;;;;19.43;61.44;101539.69;4148110;28;19929;-55
2023/08/05 00:31:10;;;;;;;;;;;;;;;19.42;61.76;101544.16;4147766;28;19964;-55
2023/08/05 00:33:12;;;;;;;;;;;;;;;19.42;61.61;101535.31;4148012;28;20364;-57
2023/08/05 00:35:14;;;;;;;;;;;;;;;19.41;61.48;101534.44;4147685;28;19950;-57
2023/08/05 00:37:15;;;;;;;;;;;;;;;19.41;61.71;101523.78;4147952;28;20008;-57
2023/08/05 00:39:18;;;;;;;;;;;;;;;19.40;61.49;101519.38;4148203;28;19929;-57
2023/08/05 00:41:19;;;;;;;;;;;;;;;19.40;61.76;101506.06;4147981;28;19926;-56
2023/08/05 00:43:21;;;;;;;;;;;;;;;19.40;61.68;101507.88;4147961;28;19925;-56
2023/08/05 00:45:22;;;;;;;;;;;;;;;19.39;61.68;101504.31;4147409;28;20330;-57
2023/08/05 00:47:24;;;;;;;;;;;;;;;19.38;61.31;101497.31;4147558;28;19972;-57
2023/08/05 00:49:26;;;;;;;;;;;;;;;19.38;61.54;101491.09;4147911;28;19957;-57
2023/08/05 00:51:27;;;;;;;;;;;;;;;19.39;61.51;101490.16;4147928;28;20398;-57
2023/08/05 00:53:30;;;;;;;;;;;;;;;19.37;61.50;101487.59;4148032;28;20009;-57
2023/08/05 00:55:32;;;;;;;;;;;;;;;19.37;61.55;101494.72;4147358;28;19931;-56
2023/08/05 00:57:34;;;;;;;;;;;;;;;19.36;61.56;101496.53;4150572;28;19931;-55
2023/08/05 00:59:35;;;;;;;;;;;;;;;19.35;61.61;101500.16;4151295;28;20062;-56
2023/08/05 01:01:37;;;;;;;;;;;;;;;19.36;61.84;101493.88;4151092;28;19929;-56
2023/08/05 01:03:38;;;;;;;;;;;;;;;19.36;61.89;101507.19;4151301;28;19933;-56
2023/08/05 01:05:41;;;;;;;;;;;;;;;19.36;61.79;101509.03;4150705;28;20020;-56
2023/08/05 01:07:43;;;;;;;;;;;;;;;19.36;61.62;101517.88;4151168;28;20024;-55
2023/08/05 01:09:44;;;;;;;;;;;;;;;19.35;61.54;101525.97;4151060;28;19984;-56
2023/08/05 01:11:46;;;;;;;;;;;;;;;19.36;61.88;101528.53;4151119;28;19937;-56
2023/08/05 01:13:47;;;;;;;;;;;;;;;19.34;61.51;101527.75;4151178;28;19930;-56
2023/08/05 01:15:49;;;;;;;;;;;;;;;19.34;61.92;101525.09;4150159;28;19925;-56
2023/08/05 01:17:52;;;;;;;;;;;;;;;19.34;61.61;101518.91;4150860;28;19933;-56
2023/08/05 01:19:54;;;;;;;;;;;;;;;19.33;61.87;101519.88;4150949;28;20014;-56
2023/08/05 01:21:56;;;;;;;;;;;;;;;19.31;61.67;101512.81;4151021;28;20410;-55
2023/08/05 01:24:10;;;;;;;;;;;;;;;19.31;61.72;101507.47;4150921;28;19969;-55
2023/08/05 01:26:12;;;;;;;;;;;;;;;19.31;61.73;101496.81;4150249;28;19925;-55
2023/08/05 01:28:15;;;;;;;;;;;;;;;19.30;61.93;101492.41;4150816;28;19961;-55
2023/08/05 01:30:16;;;;;;;;;;;;;;;19.30;61.80;101481.75;4149179;28;19932;-54
2023/08/05 01:32:18;;;;;;;;;;;;;;;19.30;61.68;101487.06;4150832;28;19976;-55
2023/08/05 01:34:20;;;;;;;;;;;;;;;19.30;61.75;101494.22;4150792;28;19965;-56
2023/08/05 01:36:21;;;;;;;;;;;;;;;19.29;61.55;101498.69;4150178;28;19960;-52
2023/08/05 01:38:23;;;;;;;;;;;;;;;19.29;61.62;101500.50;4150718;28;19957;-55
2023/08/05 01:40:28;;;;;;;;;;;;;;;19.28;61.90;101507.66;4150786;28;19926;-56
2023/08/05 01:42:29;;;;;;;;;;;;;;;19.28;61.72;101499.66;4150522;28;19929;-53
2023/08/05 01:44:31;;;;;;;;;;;;;;;19.28;61.64;101504.13;4150393;28;20395;-56
2023/08/05 01:46:32;;;;;;;;;;;;;;;19.18;61.53;101485.16;4148741;28;20020;-56
2023/08/05 01:48:34;;;;;;;;;;;;;;;19.27;61.64;101499.75;4150557;28;19979;-55
2023/08/05 01:50:36;;;;;;;;;;;;;;;19.27;61.66;101510.41;4150618;28;19972;-56
2023/08/05 01:52:38;;;;;;;;;;;;;;;19.26;61.75;101511.34;4150449;28;19944;-56
2023/08/05 01:54:39;;;;;;;;;;;;;;;19.26;61.55;101530.91;4150565;28;19996;-55
2023/08/05 01:56:41;;;;;;;;;;;;;;;19.26;61.78;101532.69;4150188;28;19938;-57
2023/08/05 01:58:42;;;;;;;;;;;;;;;19.26;61.68;101535.34;4150235;28;19926;-57
2023/08/05 02:00:50;;;;;;;;;;;;;;;19.26;61.76;101541.56;4150483;28;19969;-57
2023/08/05 02:02:52;;;;;;;;;;;;;;;19.24;61.79;101543.44;4150511;28;19929;-57
2023/08/05 02:04:53;;;;;;;;;;;;;;;19.25;61.88;101541.66;4150240;28;19925;-56
2023/08/05 02:06:55;;;;;;;;;;;;;;;19.24;61.59;101540.78;4149656;28;19980;-56
2023/08/05 02:08:56;;;;;;;;;;;;;;;19.24;61.64;101538.13;4150225;28;19925;-57
2023/08/05 02:10:58;;;;;;;;;;;;;;;19.24;61.72;101518.59;4150018;28;20264;-57
2023/08/05 02:13:00;;;;;;;;;;;;;;;19.23;61.70;101517.72;4150034;28;19926;-56
2023/08/05 02:15:02;;;;;;;;;;;;;;;19.23;61.57;101508.88;4149967;28;20382;-56
2023/08/05 02:17:03;;;;;;;;;;;;;;;19.22;61.61;101494.66;4149470;28;19925;-56
2023/08/05 02:19:05;;;;;;;;;;;;;;;19.21;61.34;101474.31;4149999;28;19926;-56
2023/08/05 02:21:06;;;;;;;;;;;;;;;19.21;61.73;101462.78;4150422;28;19969;-56
2023/08/05 02:23:08;;;;;;;;;;;;;;;19.21;61.52;101460.09;4150290;28;20020;-56
2023/08/05 02:25:09;;;;;;;;;;;;;;;19.21;61.74;101468.97;4150032;28;20345;-56
2023/08/05 02:27:11;;;;;;;;;;;;;;;19.20;61.61;101461.94;4149138;28;19925;-56
2023/08/05 02:29:12;;;;;;;;;;;;;;;19.21;61.52;101457.44;4150279;28;20316;-55
2023/08/05 02:31:14;;;;;;;;;;;;;;;19.21;61.61;101457.44;4150111;28;19961;-56
2023/08/05 02:33:15;;;;;;;;;;;;;;;19.21;61.69;101454.78;4149728;28;19932;-55
2023/08/05 02:35:17;;;;;;;;;;;;;;;19.19;61.64;101449.53;4150041;28;20309;-56
2023/08/05 02:37:18;;;;;;;;;;;;;;;19.19;61.70;101444.22;4149455;28;20435;-56
2023/08/05 02:39:20;;;;;;;;;;;;;;;19.19;61.38;101432.66;4149696;28;19965;-54
2023/08/05 02:41:21;;;;;;;;;;;;;;;19.20;61.65;101429.94;4150041;28;19926;-55
2023/08/05 02:43:23;;;;;;;;;;;;;;;19.19;61.62;101419.34;4149309;28;19937;-55
2023/08/05 02:45:25;;;;;;;;;;;;;;;19.18;61.70;101414.97;4149494;28;20349;-56
2023/08/05 02:47:26;;;;;;;;;;;;;;;19.18;61.64;101410.50;4149288;28;19932;-56
2023/08/05 02:49:28;;;;;;;;;;;;;;;19.18;61.74;101398.97;4149705;28;20397;-55
2023/08/05 02:51:29;;;;;;;;;;;;;;;19.18;61.48;101405.16;4149662;28;19932;-56
2023/08/05 02:53:31;;;;;;;;;;;;;;;19.17;61.90;101398.09;4149563;28;19932;-55
2023/08/05 02:55:32;;;;;;;;;;;;;;;19.18;61.54;101393.66;4149200;28;20399;-56
2023/08/05 02:57:34;;;;;;;;;;;;;;;19.15;61.30;101395.53;4148788;28;19933;-56
2023/08/05 02:59:37;;;;;;;;;;;;;;;19.15;61.60;101395.53;4149347;28;19964;-56
2023/08/05 03:01:39;;;;;;;;;;;;;;;19.16;61.73;101404.38;4149337;28;19933;-55
2023/08/05 03:03:40;;;;;;;;;;;;;;;19.15;61.73;101400.88;4149430;28;19925;-55
2023/08/05 03:05:42;;;;;;;;;;;;;;;19.15;61.33;101394.69;4148672;28;19926;-55
2023/08/05 03:07:43;;;;;;;;;;;;;;;19.14;61.64;101396.47;4149384;28;19925;-58
2023/08/05 03:09:45;;;;;;;;;;;;;;;19.15;61.44;101400.88;4149048;28;20008;-57
2023/08/05 03:11:47;;;;;;;;;;;;;;;19.14;61.53;101403.63;4148963;28;20459;-56
2023/08/05 03:13:49;;;;;;;;;;;;;;;19.13;61.66;101400.09;4149139;28;19929;-57
2023/08/05 03:15:51;;;;;;;;;;;;;;;19.14;61.45;101403.63;4148683;28;20441;-58
2023/08/05 03:17:52;;;;;;;;;;;;;;;19.12;61.71;101395.72;4149190;28;19930;-58
2023/08/05 03:19:54;;;;;;;;;;;;;;;19.13;61.41;101404.59;4148486;28;20382;-56
2023/08/05 03:21:55;;;;;;;;;;;;;;;19.11;61.67;101402.03;4148930;28;19936;-56
2023/08/05 03:23:57;;;;;;;;;;;;;;;19.12;61.39;101402.88;4148957;28;19996;-55
2023/08/05 03:25:58;;;;;;;;;;;;;;;19.12;61.40;101402.88;4148172;28;19929;-55
2023/08/05 03:28:00;;;;;;;;;;;;;;;19.10;61.76;101392.31;4148990;28;20387;-56
2023/08/05 03:30:02;;;;;;;;;;;;;;;19.11;61.63;101387.81;4149048;28;19925;-55
2023/08/05 03:32:04;;;;;;;;;;;;;;;19.10;61.47;101394.09;4148743;28;19926;-56
2023/08/05 03:34:05;;;;;;;;;;;;;;;19.10;61.75;101386.09;4148904;28;19976;-56
2023/08/05 03:36:07;;;;;;;;;;;;;;;19.10;61.48;101391.44;4148378;28;19925;-55
2023/08/05 03:38:09;;;;;;;;;;;;;;;19.09;61.72;101395.91;4148829;28;19961;-52
2023/08/05 03:40:10;;;;;;;;;;;;;;;19.10;61.51;101386.09;4148570;28;19961;-55
2023/08/05 03:42:12;;;;;;;;;;;;;;;19.09;61.63;101397.72;4148599;28;19969;-56
2023/08/05 03:44:13;;;;;;;;;;;;;;;19.09;61.48;101400.38;4148953;28;19984;-56
2023/08/05 03:46:15;;;;;;;;;;;;;;;19.07;61.70;101400.47;4148290;28;19987;-56
2023/08/05 03:48:17;;;;;;;;;;;;;;;19.08;61.31;101396.03;4148617;28;19931;-55
2023/08/05 03:50:20;;;;;;;;;;;;;;;19.07;61.69;101389.81;4148661;28;19957;-56
2023/08/05 03:52:21;;;;;;;;;;;;;;;19.07;61.45;101386.31;4148785;28;20354;-56
2023/08/05 03:54:23;;;;;;;;;;;;;;;19.07;61.44;101386.31;4148323;28;19936;-56
2023/08/05 03:56:26;;;;;;;;;;;;;;;19.07;61.66;101380.97;4147958;28;19979;-56
2023/08/05 03:58:28;;;;;;;;;;;;;;;19.06;61.58;101376.59;4148741;28;20454;-56
2023/08/05 04:00:29;;;;;;;;;;;;;;;19.05;61.64;101367.72;4148520;28;20020;-55
2023/08/05 04:02:31;;;;;;;;;;;;;;;19.05;61.39;101357.03;4148451;28;20028;-55
2023/08/05 04:04:33;;;;;;;;;;;;;;;19.05;61.51;101346.38;4148552;28;19925;-55
2023/08/05 04:06:34;;;;;;;;;;;;;;;19.05;61.38;101337.53;4147708;28;20334;-56
2023/08/05 04:08:36;;;;;;;;;;;;;;;19.05;61.40;101324.22;4148008;28;19925;-56
2023/08/05 04:10:39;;;;;;;;;;;;;;;19.04;61.31;101325.16;4148411;28;19957;-56
2023/08/05 04:12:40;;;;;;;;;;;;;;;19.04;61.46;101309.16;4148529;28;19925;-56
2023/08/05 04:14:43;;;;;;;;;;;;;;;19.04;61.59;101314.50;4148265;28;20349;-56
2023/08/05 04:16:47;;;;;;;;;;;;;;;19.03;61.74;101318.09;4147560;28;19932;-57
2023/08/05 04:18:49;;;;;;;;;;;;;;;19.03;61.61;101313.66;4148464;28;20032;-57
2023/08/05 04:20:51;;;;;;;;;;;;;;;19.03;61.40;101304.78;4148355;28;19925;-56
2023/08/05 04:22:53;;;;;;;;;;;;;;;19.03;61.68;101300.31;4148374;28;19925;-56
2023/08/05 04:24:54;;;;;;;;;;;;;;;19.02;61.71;101301.28;4147968;28;20240;-56
2023/08/05 04:26:56;;;;;;;;;;;;;;;19.02;61.28;101295.94;4147565;28;19932;-56
2023/08/05 04:28:58;;;;;;;;;;;;;;;19.03;61.23;101307.44;4148263;28;19933;-55
2023/08/05 04:31:00;;;;;;;;;;;;;;;19.01;61.35;101315.53;4147419;28;19929;-57
2023/08/05 04:33:01;;;;;;;;;;;;;;;19.02;61.30;101319.06;4148164;28;19980;-56
2023/08/05 04:35:03;;;;;;;;;;;;;;;19.01;61.38;101323.53;4148313;28;20016;-56
2023/08/05 04:37:19;;;;;;;;;;;;;;;19.02;61.19;101324.38;4162686;28;20378;-56
2023/08/05 04:39:21;;;;;;;;;;;;;;;19.01;61.42;101322.69;4147899;28;20299;-56
2023/08/05 04:41:23;;;;;;;;;;;;;;;19.01;61.53;101328.88;4147909;28;20382;-57
2023/08/05 04:43:24;;;;;;;;;;;;;;;19.00;61.46;101337.81;4147954;28;20028;-58
2023/08/05 04:45:26;;;;;;;;;;;;;;;19.00;61.65;101335.16;4147857;28;19967;-56
2023/08/05 04:47:27;;;;;;;;;;;;;;;19.00;61.25;101335.16;4147622;28;20375;-56
2023/08/05 04:49:29;;;;;;;;;;;;;;;18.99;61.30;101326.31;4148001;28;19933;-55
2023/08/05 04:51:30;;;;;;;;;;;;;;;19.00;61.56;101327.16;4148032;28;19932;-55
2023/08/05 04:53:32;;;;;;;;;;;;;;;19.00;61.58;101321.81;4147706;28;19925;-55
2023/08/05 04:55:34;;;;;;;;;;;;;;;18.99;61.44;101320.09;4147893;28;20012;-55
2023/08/05 04:57:35;;;;;;;;;;;;;;;18.99;61.21;101322.78;4147279;28;19932;-56
2023/08/05 04:59:37;;;;;;;;;;;;;;;18.99;61.56;101320.97;4148187;28;19932;-56
2023/08/05 05:01:38;;;;;;;;;;;;;;;18.98;61.56;101321.09;4147864;28;20026;-55
2023/08/05 05:03:40;;;;;;;;;;;;;;;18.98;61.35;101316.59;4147921;28;19968;-56
2023/08/05 05:05:45;;;;;;;;;;;;;;;18.98;61.33;101307.75;4147935;28;19925;-56
2023/08/05 05:07:46;;;;;;;;;;;;;;;18.97;61.23;101311.38;4146968;28;20398;-56
2023/08/05 05:09:48;;;;;;;;;;;;;;;18.98;61.31;101305.09;4147922;28;19926;-56
2023/08/05 05:11:49;;;;;;;;;;;;;;;18.97;61.49;101290.03;4147624;28;20012;-56
2023/08/05 05:13:52;;;;;;;;;;;;;;;18.97;61.05;101287.38;4147796;28;19945;-56
2023/08/05 05:15:53;;;;;;;;;;;;;;;18.95;61.28;101279.44;4147732;28;19932;-56
2023/08/05 05:17:55;;;;;;;;;;;;;;;18.96;61.59;101278.50;4147234;28;19926;-56
2023/08/05 05:19:56;;;;;;;;;;;;;;;18.96;61.55;101275.00;4147935;28;19925;-56
2023/08/05 05:21:58;;;;;;;;;;;;;;;18.96;61.17;101267.00;4147433;28;20004;-56
2023/08/05 05:23:59;;;;;;;;;;;;;;;18.96;61.17;101267.00;4147793;28;20028;-56
2023/08/05 05:26:01;;;;;;;;;;;;;;;18.96;61.54;101275.84;4147413;28;19968;-56
2023/08/05 05:28:03;;;;;;;;;;;;;;;18.96;61.44;101273.16;4147561;28;20291;-56
2023/08/05 05:30:04;;;;;;;;;;;;;;;18.96;61.41;101265.19;4147842;28;19932;-56
2023/08/05 05:32:11;;;;;;;;;;;;;;;18.96;61.45;101262.50;4147498;28;19925;-56
2023/08/05 05:34:12;;;;;;;;;;;;;;;18.96;61.28;101267.84;4147597;28;20036;-56
2023/08/05 05:36:14;;;;;;;;;;;;;;;18.96;61.37;101262.50;4146875;28;19926;-55
2023/08/05 05:38:15;;;;;;;;;;;;;;;18.96;61.37;101254.50;4147570;28;19925;-57
2023/08/05 05:40:17;;;;;;;;;;;;;;;18.96;61.37;101251.84;4147853;28;19957;-56
2023/08/05 05:42:18;;;;;;;;;;;;;;;18.96;61.24;101237.69;4147813;28;19925;-56
2023/08/05 05:44:20;;;;;;;;;;;;;;;18.95;61.13;101236.81;4150876;28;19933;-56
2023/08/05 05:46:22;;;;;;;;;;;;;;;18.96;61.14;101238.53;4150234;28;19964;-56
2023/08/05 05:48:23;;;;;;;;;;;;;;;18.97;61.29;101245.56;4150583;28;19930;-56
2023/08/05 05:50:25;;;;;;;;;;;;;;;18.96;61.31;101238.53;4150068;28;19925;-56
2023/08/05 05:52:26;;;;;;;;;;;;;;;18.97;61.25;101236.72;4150451;28;19925;-55
2023/08/05 05:54:32;;;;;;;;;;;;;;;18.96;61.31;101243.84;4150422;28;19929;-57
2023/08/05 05:56:34;;;;;;;;;;;;;;;18.96;60.98;101237.69;4149981;28;19926;-57
2023/08/05 05:58:36;;;;;;;;;;;;;;;18.96;61.21;101232.34;4150456;28;20012;-57
2023/08/05 06:00:38;;;;;;;;;;;;;;;18.96;61.25;101227.84;4150250;28;19961;-56
2023/08/05 06:02:41;;;;;;;;;;;;;;;18.95;61.19;101223.47;4150224;28;20421;-57
2023/08/05 06:04:44;;;;;;;;;;;;;;;18.96;61.19;101219.03;4150043;28;19925;-56
2023/08/05 06:06:48;;;;;;;;;;;;;;;18.95;61.07;101207.47;4149757;28;19948;-56
2023/08/05 06:08:50;;;;;;;;;;;;;;;18.95;61.18;101215.47;4150344;28;19976;-56
2023/08/05 06:10:51;;;;;;;;;;;;;;;18.95;60.79;101211.97;4150060;28;19975;-56
2023/08/05 06:12:53;;;;;;;;;;;;;;;18.95;61.02;101207.47;4148931;28;19925;-56
2023/08/05 06:14:55;;;;;;;;;;;;;;;18.95;61.00;101201.31;4150198;28;20379;-56
2023/08/05 06:16:56;;;;;;;;;;;;;;;18.95;61.13;101190.66;4149732;28;19932;-57
2023/08/05 06:18:58;;;;;;;;;;;;;;;18.94;60.95;101197.81;4150124;28;20221;-56
2023/08/05 06:21:00;;;;;;;;;;;;;;;18.94;61.05;101210.25;4150118;28;19934;-56
2023/08/05 06:23:01;;;;;;;;;;;;;;;18.94;61.22;101210.25;4150162;28;19931;-55
2023/08/05 06:25:03;;;;;;;;;;;;;;;18.93;61.23;101204.09;4150123;28;19933;-56
2023/08/05 06:27:05;;;;;;;;;;;;;;;18.93;61.22;101209.41;4149351;28;19925;-55
2023/08/05 06:29:06;;;;;;;;;;;;;;;18.93;61.28;101208.53;4150314;28;19932;-56
2023/08/05 06:31:08;;;;;;;;;;;;;;;18.93;60.90;101204.09;4149849;28;20016;-55
2023/08/05 06:33:10;;;;;;;;;;;;;;;18.94;61.16;101207.59;4149946;28;19925;-56
2023/08/05 06:35:11;;;;;;;;;;;;;;;18.94;60.91;101199.59;4149637;28;19926;-57
2023/08/05 06:37:13;;;;;;;;;;;;;;;18.93;61.27;101198.75;4149310;28;19929;-56
2023/08/05 06:39:19;;;;;;;;;;;;;;;18.94;61.16;101196.94;4149875;28;19926;-57
2023/08/05 06:41:21;;;;;;;;;;;;;;;18.94;61.03;101191.59;4149940;28;19936;-57
2023/08/05 06:43:23;;;;;;;;;;;;;;;18.94;61.14;101184.47;4149884;28;20287;-56
2023/08/05 06:45:27;;;;;;;;;;;;;;;18.95;60.73;101185.31;4148478;28;19925;-57
2023/08/05 06:47:31;;;;;;;;;;;;;;;18.95;60.85;101180.84;4148933;28;19997;-56
2023/08/05 06:49:34;;;;;;;;;;;;;;;18.94;61.02;101187.13;4149348;28;19926;-57
2023/08/05 06:51:37;;;;;;;;;;;;;;;18.94;60.73;101181.81;4149645;28;19926;-57
2023/08/05 06:53:42;;;;;;;;;;;;;;;18.95;60.91;101186.16;4147990;28;19925;-56
2023/08/05 06:55:44;;;;;;;;;;;;;;;18.94;60.96;101180.94;4149309;28;19932;-56
2023/08/05 06:57:48;;;;;;;;;;;;;;;18.95;60.70;101182.66;4149053;28;19926;-56
2023/08/05 06:59:49;;;;;;;;;;;;;;;18.95;60.79;101183.50;4149535;28;19988;-57
2023/08/05 07:01:51;;;;;;;;;;;;;;;18.94;60.53;101181.81;4149421;28;19929;-56
2023/08/05 07:03:53;;;;;;;;;;;;;;;18.94;61.01;101175.59;4148944;28;19932;-56
2023/08/05 07:05:55;;;;;;;;;;;;;;;18.96;60.58;101176.38;4149466;28;20000;-55
2023/08/05 07:07:57;;;;;;;;;;;;;;;18.96;60.57;101181.72;4148947;28;20295;-56
2023/08/05 07:10:02;;;;;;;;;;;;;;;18.95;61.06;101175.50;4149225;28;19929;-56
2023/08/05 07:12:03;;;;;;;;;;;;;;;18.95;60.74;101170.16;4149388;28;19925;-56
2023/08/05 07:14:05;;;;;;;;;;;;;;;18.96;60.60;101165.72;4149376;28;19960;-56
2023/08/05 07:16:07;;;;;;;;;;;;;;;18.98;60.76;101171.81;4149319;28;19992;-55
2023/08/05 07:18:09;;;;;;;;;;;;;;;18.97;60.66;101164.75;4148090;28;19932;-55
2023/08/05 07:20:11;;;;;;;;;;;;;;;18.97;60.58;101170.09;4149211;28;20441;-55
2023/08/05 07:22:12;;;;;;;;;;;;;;;18.99;60.51;101173.50;4149088;28;19925;-54
2023/08/05 07:24:14;;;;;;;;;;;;;;;18.99;60.76;101166.38;4149128;28;19972;-54
2023/08/05 07:26:15;;;;;;;;;;;;;;;18.98;60.56;101171.81;4149076;28;19925;-55
2023/08/05 07:28:17;;;;;;;;;;;;;;;18.98;60.88;101162.00;4148502;28;19926;-53
2023/08/05 07:30:18;;;;;;;;;;;;;;;18.99;60.60;101163.72;4149026;28;19944;-55
2023/08/05 07:32:20;;;;;;;;;;;;;;;18.99;60.44;101154.84;4148518;28;19925;-56
2023/08/05 07:34:22;;;;;;;;;;;;;;;18.99;60.75;101152.16;4148907;28;20012;-54
2023/08/05 07:36:25;;;;;;;;;;;;;;;18.98;60.68;101156.66;4148849;28;19929;-55
2023/08/05 07:38:28;;;;;;;;;;;;;;;18.99;60.63;101163.72;4148666;28;19932;-56
2023/08/05 07:40:31;;;;;;;;;;;;;;;19.00;60.64;101161.88;4148832;28;19929;-56
2023/08/05 07:42:34;;;;;;;;;;;;;;;18.98;60.48;101159.31;4148753;28;20016;-56
2023/08/05 07:44:36;;;;;;;;;;;;;;;18.98;60.54;101166.47;4148849;28;19925;-55
2023/08/05 07:46:40;;;;;;;;;;;;;;;18.98;60.32;101166.47;4148113;28;19925;-56
2023/08/05 07:48:45;;;;;;;;;;;;;;;18.97;60.41;101168.28;4148756;28;19926;-56
2023/08/05 07:50:47;;;;;;;;;;;;;;;18.98;60.39;101161.16;4148872;28;20040;-56
2023/08/05 07:52:53;;;;;;;;;;;;;;;18.99;60.17;101155.72;4147358;28;20300;-56
2023/08/05 07:54:55;;;;;;;;;;;;;;;18.99;60.41;101154.84;4148760;28;20040;-56
2023/08/05 07:56:58;;;;;;;;;;;;;;;18.99;60.49;101144.16;4148182;28;19925;-56
2023/08/05 07:59:00;;;;;;;;;;;;;;;19.01;60.47;101154.75;4148515;28;19935;-56
2023/08/05 08:01:02;;;;;;;;;;;;;;;19.01;60.30;101138.75;4148215;28;20672;-56
2023/08/05 08:03:03;;;;;;;;;;;;;;;19.02;60.34;101129.78;4148449;28;20309;-55
2023/08/05 08:05:05;;;;;;;;;;;;;;;19.02;60.36;101137.78;4148438;28;19952;-56
2023/08/05 08:07:08;;;;;;;;;;;;;;;19.01;60.16;101128.94;4146674;28;19933;-56
2023/08/05 08:09:10;;;;;;;;;;;;;;;19.01;60.02;101128.09;4148530;28;20029;-55
2023/08/05 08:11:12;;;;;;;;;;;;;;;19.02;60.04;101116.47;4148299;28;19940;-56
2023/08/05 08:13:14;;;;;;;;;;;;;;;19.01;60.28;101120.94;4148606;28;19932;-56
2023/08/05 08:15:15;;;;;;;;;;;;;;;19.01;60.00;101120.94;4147789;28;19925;-56
2023/08/05 08:17:17;;;;;;;;;;;;;;;19.02;60.18;101127.13;4147884;28;20335;-56
2023/08/05 08:19:19;;;;;;;;;;;;;;;19.01;60.19;101120.94;4148108;28;20056;-56
2023/08/05 08:21:20;;;;;;;;;;;;;;;19.02;60.26;101121.78;4148256;28;19925;-56
2023/08/05 08:23:22;;;;;;;;;;;;;;;19.01;59.94;101131.63;4148355;28;19937;-56
2023/08/05 08:25:23;;;;;;;;;;;;;;;19.01;59.92;101120.09;4148232;28;19936;-55
2023/08/05 08:27:25;;;;;;;;;;;;;;;19.03;60.19;101126.16;4147551;28;19926;-56
2023/08/05 08:29:26;;;;;;;;;;;;;;;19.02;60.22;101117.34;4148162;28;19948;-57
2023/08/05 08:31:30;;;;;;;;;;;;;;;19.03;60.18;101121.72;4147931;28;20012;-57
2023/08/05 08:33:31;;;;;;;;;;;;;;;19.04;60.01;101114.56;4148147;28;19941;-56
2023/08/05 08:35:33;;;;;;;;;;;;;;;19.04;59.83;101115.44;4148131;28;19925;-56
2023/08/05 08:37:34;;;;;;;;;;;;;;;19.04;60.23;101107.44;4147567;28;19932;-56
2023/08/05 08:39:36;;;;;;;;;;;;;;;19.04;60.04;101111.91;4146903;28;19949;-56
2023/08/05 08:41:41;;;;;;;;;;;;;;;19.04;60.26;101115.44;4148009;28;19932;-55
2023/08/05 08:43:43;;;;;;;;;;;;;;;19.04;60.13;101118.09;4148010;28;20001;-55
2023/08/05 08:45:46;;;;;;;;;;;;;;;19.04;60.19;101119.88;4147634;28;19926;-56
2023/08/05 08:47:49;;;;;;;;;;;;;;;19.03;59.92;101115.50;4147340;28;20361;-56
2023/08/05 08:49:52;;;;;;;;;;;;;;;19.03;59.78;101107.50;4148066;28;19968;-55
2023/08/05 08:51:54;;;;;;;;;;;;;;;19.03;60.29;101099.50;4148100;28;19953;-56
2023/08/05 08:53:55;;;;;;;;;;;;;;;19.02;60.08;101104.00;4148021;28;19972;-56
2023/08/05 08:55:58;;;;;;;;;;;;;;;18.93;59.85;101089.47;4148053;28;20004;-56
2023/08/05 08:57:59;;;;;;;;;;;;;;;19.02;60.04;101097.81;4146034;28;19925;-56
2023/08/05 09:00:01;;;;;;;;;;;;;;;19.01;60.25;101094.28;4147554;28;20429;-57
2023/08/05 09:02:10;;;;;;;;;;;;;;;19.01;60.23;101088.13;4147931;28;20391;-56
2023/08/05 09:04:11;;;;;;;;;;;;;;;19.01;59.96;101083.63;4147946;28;20387;-56
2023/08/05 09:06:13;;;;;;;;;;;;;;;19.02;59.93;101089.81;4147638;28;19936;-53
2023/08/05 09:08:15;;;;;;;;;;;;;;;19.02;59.79;101082.69;4147298;28;20306;-56
2023/08/05 09:10:16;;;;;;;;;;;;;;;19.03;59.73;101073.72;4147822;28;19933;-53
2023/08/05 09:12:18;;;;;;;;;;;;;;;19.04;59.57;101067.44;4146278;28;19926;-53
2023/08/05 09:14:19;;;;;;;;;;;;;;;19.04;59.70;101059.44;4145812;28;19961;-56
2023/08/05 09:16:21;;;;;;;;;;;;;;;19.07;59.83;101061.91;4147654;28;20019;-54
2023/08/05 09:18:22;;;;;;;;;;;;;;;19.08;59.46;101060.09;4148894;28;20351;-55
2023/08/05 09:20:24;;;;;;;;;;;;;;;19.10;59.49;101060.84;4150947;28;20012;-53
2023/08/05 09:22:26;;;;;;;;;;;;;;;19.09;59.80;101054.66;4150662;28;19932;-54
2023/08/05 09:24:28;;;;;;;;;;;;;;;19.10;59.67;101063.50;4150805;28;19926;-53
2023/08/05 09:26:30;;;;;;;;;;;;;;;19.12;59.78;101050.94;4150993;28;19926;-55
2023/08/05 09:28:32;;;;;;;;;;;;;;;19.11;59.47;101042.09;4149736;28;19971;-54
2023/08/05 09:30:35;;;;;;;;;;;;;;;19.13;59.37;101050.81;4150684;28;19933;-54
2023/08/05 09:32:38;;;;;;;;;;;;;;;19.13;59.58;101034.84;4150568;28;20387;-58
2023/08/05 09:34:41;;;;;;;;;;;;;;;19.20;61.00;101032.63;4145149;28;20457;-59
2023/08/05 09:36:45;;;;;;;;;;;;;;;19.23;60.06;101020.91;4144208;28;20376;-55
2023/08/05 09:38:58;;;;;;;;;;;;;;;19.23;60.23;101026.22;4136822;28;19972;-54
2023/08/05 09:41:00;;;;;;;;;;;;;;;19.22;59.62;101025.34;4149932;28;19979;-53
2023/08/05 09:43:03;;;;;;;;;;;;;;;19.20;59.68;101021.09;4149661;28;19980;-55
2023/08/05 09:45:08;;;;;;;;;;;;;;;19.19;59.69;101020.25;4149952;28;20394;-53
2023/08/05 09:47:10;;;;;;;;;;;;;;;19.20;59.75;101027.28;4149604;28;19926;-54
2023/08/05 09:49:14;;;;;;;;;;;;;;;19.22;59.40;101016.50;4135374;28;20024;-54
2023/08/05 09:51:19;;;;;;;;;;;;;;;19.21;59.36;101004.13;4145271;28;19951;-54
2023/08/05 09:53:22;;;;;;;;;;;;;;;19.22;59.31;101016.50;4150083;28;20008;-58
2023/08/05 09:55:24;;;;;;;;;;;;;;;19.25;59.47;100998.50;4147443;28;19979;-59
2023/08/05 09:57:26;;;;;;;;;;;;;;;19.30;59.80;100998.19;4148000;28;19964;-57
2023/08/05 09:59:29;;;;;;;;;;;;;;;19.35;60.03;100995.22;4149845;28;19925;-58
2023/08/05 10:01:31;;;;;;;;;;;;;;;19.37;59.65;100990.59;4149573;28;19925;-57
2023/08/05 10:03:34;;;;;;;;;;;;;;;19.40;59.51;100977.06;4149772;28;19926;-58
2023/08/05 10:05:38;;;;;;;;;;;;;;;19.41;59.64;100976.97;4149628;28;19968;-57
2023/08/05 10:07:41;;;;;;;;;;;;;;;19.43;60.10;100971.50;4148774;28;19925;-57
2023/08/05 10:09:42;;;;;;;;;;;;;;;19.62;62.68;100963.97;4149799;28;19925;-65
2023/08/05 10:11:44;;;;;;;;;;;;;;;19.65;60.90;100973.56;4147086;28;19933;-58
2023/08/05 10:13:47;;;;;;;;;;;;;;;19.64;60.78;100971.84;4147089;28;20049;-58
2023/08/05 10:15:50;;;;;;;;;;;;;;;19.71;60.73;100975.81;4145823;28;19940;-59
2023/08/05 10:17:52;;;;;;;;;;;;;;;19.75;59.95;100981.78;4147754;28;19929;-69
2023/08/05 10:19:54;;;;;;;;;;;;;;;19.80;60.04;100969.78;4148486;28;19932;-67
2023/08/05 10:22:10;;;;;;;;;;;;;;;19.84;60.30;100969.63;4144376;28;19925;-58
2023/08/05 10:24:12;;;;;;;;;;;;;;;19.88;58.96;100966.63;4146585;28;19926;-59
2023/08/05 10:26:13;;;;;;;;;;;;;;;19.89;59.48;100970.16;4145396;28;20024;-60